Terminal Aerodrome Forecast
Issued by NWS

Home | Current Version | Previous Version | Text Only | Print | Product List | Glossary On
Versions: 1 2 3 4 5 6 7 8 9 10 11 12
000
FTUS43 KOAX 281136
TAFSNY
TAF
KSNY 281136Z 2812/2912 32008KT P6SM SKC
     FM281700 34012G19KT P6SM SKC
     FM290000 05009KT P6SM SCT100
     FM290400 15007KT P6SM SKC=

USA.gov is the U.S. government's official web portal to all federal, state and local government web resources and services.